sensor_id;sensor_type;location;lat;lon;timestamp;P1;durP1;ratioP1;P2;durP2;ratioP2
18580;SDS011;9420;50.876;7.012;2023-03-03T00:00:48;37.73;;;21.93;;
18580;SDS011;9420;50.876;7.012;2023-03-03T00:03:16;37.47;;;20.30;;
18580;SDS011;9420;50.876;7.012;2023-03-03T00:05:46;40.10;;;21.87;;
18580;SDS011;9420;50.876;7.012;2023-03-03T00:08:15;43.50;;;23.83;;
18580;SDS011;9420;50.876;7.012;2023-03-03T00:10:43;43.40;;;24.40;;
18580;SDS011;9420;50.876;7.012;2023-03-03T00:13:14;44.17;;;23.20;;
18580;SDS011;9420;50.876;7.012;2023-03-03T00:15:44;42.47;;;23.90;;
18580;SDS011;9420;50.876;7.012;2023-03-03T00:18:17;45.23;;;23.57;;
18580;SDS011;9420;50.876;7.012;2023-03-03T00:20:55;40.10;;;23.77;;
18580;SDS011;9420;50.876;7.012;2023-03-03T00:23:29;44.03;;;24.00;;
18580;SDS011;9420;50.876;7.012;2023-03-03T00:26:01;45.60;;;23.93;;
18580;SDS011;9420;50.876;7.012;2023-03-03T00:28:43;45.90;;;23.83;;
18580;SDS011;9420;50.876;7.012;2023-03-03T00:31:13;50.00;;;26.47;;
18580;SDS011;9420;50.876;7.012;2023-03-03T00:33:44;43.20;;;24.40;;
18580;SDS011;9420;50.876;7.012;2023-03-03T00:36:24;45.13;;;26.37;;
18580;SDS011;9420;50.876;7.012;2023-03-03T00:39:16;41.33;;;23.87;;
18580;SDS011;9420;50.876;7.012;2023-03-03T00:41:54;41.80;;;24.13;;
18580;SDS011;9420;50.876;7.012;2023-03-03T00:47:15;42.53;;;22.30;;
18580;SDS011;9420;50.876;7.012;2023-03-03T00:50:17;44.83;;;25.00;;
18580;SDS011;9420;50.876;7.012;2023-03-03T00:53:00;42.13;;;24.53;;
18580;SDS011;9420;50.876;7.012;2023-03-03T00:55:31;47.13;;;24.57;;
18580;SDS011;9420;50.876;7.012;2023-03-03T00:58:00;43.27;;;23.37;;
18580;SDS011;9420;50.876;7.012;2023-03-03T01:00:27;46.27;;;23.93;;
18580;SDS011;9420;50.876;7.012;2023-03-03T01:02:55;43.43;;;23.80;;
18580;SDS011;9420;50.876;7.012;2023-03-03T01:05:23;47.57;;;24.80;;
18580;SDS011;9420;50.876;7.012;2023-03-03T01:07:50;41.40;;;24.67;;
18580;SDS011;9420;50.876;7.012;2023-03-03T01:10:17;46.43;;;25.77;;
18580;SDS011;9420;50.876;7.012;2023-03-03T01:12:45;45.77;;;25.03;;
18580;SDS011;9420;50.876;7.012;2023-03-03T01:15:13;48.50;;;25.77;;
18580;SDS011;9420;50.876;7.012;2023-03-03T01:17:41;41.40;;;24.07;;
18580;SDS011;9420;50.876;7.012;2023-03-03T01:20:09;44.93;;;25.47;;
18580;SDS011;9420;50.876;7.012;2023-03-03T01:22:39;43.00;;;23.93;;
18580;SDS011;9420;50.876;7.012;2023-03-03T01:25:07;47.90;;;25.87;;
18580;SDS011;9420;50.876;7.012;2023-03-03T01:27:35;44.60;;;26.27;;
18580;SDS011;9420;50.876;7.012;2023-03-03T01:30:04;48.27;;;25.63;;
18580;SDS011;9420;50.876;7.012;2023-03-03T01:32:34;52.73;;;27.10;;
18580;SDS011;9420;50.876;7.012;2023-03-03T01:35:01;50.03;;;27.90;;
18580;SDS011;9420;50.876;7.012;2023-03-03T01:37:28;51.73;;;27.80;;
18580;SDS011;9420;50.876;7.012;2023-03-03T01:39:55;51.67;;;28.13;;
18580;SDS011;9420;50.876;7.012;2023-03-03T01:42:22;49.53;;;28.33;;
18580;SDS011;9420;50.876;7.012;2023-03-03T01:47:49;45.63;;;27.40;;
18580;SDS011;9420;50.876;7.012;2023-03-03T01:50:27;52.57;;;28.20;;
18580;SDS011;9420;50.876;7.012;2023-03-03T01:53:04;54.30;;;28.67;;
18580;SDS011;9420;50.876;7.012;2023-03-03T01:55:39;50.77;;;27.93;;
18580;SDS011;9420;50.876;7.012;2023-03-03T01:58:09;52.77;;;29.73;;
18580;SDS011;9420;50.876;7.012;2023-03-03T02:00:41;49.20;;;27.17;;
18580;SDS011;9420;50.876;7.012;2023-03-03T02:03:16;47.50;;;29.43;;
18580;SDS011;9420;50.876;7.012;2023-03-03T02:05:45;60.37;;;30.33;;
18580;SDS011;9420;50.876;7.012;2023-03-03T02:08:14;54.77;;;30.13;;
18580;SDS011;9420;50.876;7.012;2023-03-03T02:10:51;49.20;;;28.83;;
18580;SDS011;9420;50.876;7.012;2023-03-03T02:13:20;54.33;;;29.63;;
18580;SDS011;9420;50.876;7.012;2023-03-03T02:15:47;58.37;;;32.53;;
18580;SDS011;9420;50.876;7.012;2023-03-03T02:18:17;55.57;;;30.83;;
18580;SDS011;9420;50.876;7.012;2023-03-03T02:20:49;56.23;;;31.17;;
18580;SDS011;9420;50.876;7.012;2023-03-03T02:23:26;51.50;;;30.63;;
18580;SDS011;9420;50.876;7.012;2023-03-03T02:26:07;56.43;;;30.23;;
18580;SDS011;9420;50.876;7.012;2023-03-03T02:28:37;58.83;;;31.60;;
18580;SDS011;9420;50.876;7.012;2023-03-03T02:31:07;57.40;;;31.10;;
18580;SDS011;9420;50.876;7.012;2023-03-03T02:33:38;64.73;;;31.13;;
18580;SDS011;9420;50.876;7.012;2023-03-03T02:36:06;60.10;;;32.97;;
18580;SDS011;9420;50.876;7.012;2023-03-03T02:38:38;57.30;;;30.50;;
18580;SDS011;9420;50.876;7.012;2023-03-03T02:41:17;60.53;;;32.90;;
18580;SDS011;9420;50.876;7.012;2023-03-03T02:43:57;66.73;;;33.83;;
18580;SDS011;9420;50.876;7.012;2023-03-03T02:46:26;55.60;;;31.77;;
18580;SDS011;9420;50.876;7.012;2023-03-03T02:48:58;55.43;;;30.57;;
18580;SDS011;9420;50.876;7.012;2023-03-03T02:51:26;54.93;;;30.43;;
18580;SDS011;9420;50.876;7.012;2023-03-03T02:53:53;58.67;;;30.83;;
18580;SDS011;9420;50.876;7.012;2023-03-03T02:56:21;63.23;;;31.87;;
18580;SDS011;9420;50.876;7.012;2023-03-03T02:58:49;59.17;;;32.87;;
18580;SDS011;9420;50.876;7.012;2023-03-03T03:01:16;63.33;;;33.47;;
18580;SDS011;9420;50.876;7.012;2023-03-03T03:03:44;57.50;;;31.77;;
18580;SDS011;9420;50.876;7.012;2023-03-03T03:06:11;55.43;;;31.43;;
18580;SDS011;9420;50.876;7.012;2023-03-03T03:08:38;62.07;;;32.37;;
18580;SDS011;9420;50.876;7.012;2023-03-03T03:11:05;55.27;;;30.17;;
18580;SDS011;9420;50.876;7.012;2023-03-03T03:13:34;67.53;;;33.27;;
18580;SDS011;9420;50.876;7.012;2023-03-03T03:16:01;58.23;;;30.87;;
18580;SDS011;9420;50.876;7.012;2023-03-03T03:18:28;61.03;;;31.57;;
18580;SDS011;9420;50.876;7.012;2023-03-03T03:20:55;64.53;;;33.03;;
18580;SDS011;9420;50.876;7.012;2023-03-03T03:23:22;66.53;;;31.83;;
18580;SDS011;9420;50.876;7.012;2023-03-03T03:25:49;61.83;;;31.97;;
18580;SDS011;9420;50.876;7.012;2023-03-03T03:28:16;58.17;;;31.30;;
18580;SDS011;9420;50.876;7.012;2023-03-03T03:30:45;59.93;;;31.93;;
18580;SDS011;9420;50.876;7.012;2023-03-03T03:33:12;60.13;;;29.93;;
18580;SDS011;9420;50.876;7.012;2023-03-03T03:35:39;57.37;;;32.73;;
18580;SDS011;9420;50.876;7.012;2023-03-03T03:38:09;57.93;;;29.23;;
18580;SDS011;9420;50.876;7.012;2023-03-03T03:40:37;53.80;;;29.73;;
18580;SDS011;9420;50.876;7.012;2023-03-03T03:43:05;55.87;;;30.40;;
18580;SDS011;9420;50.876;7.012;2023-03-03T03:45:32;53.27;;;29.03;;
18580;SDS011;9420;50.876;7.012;2023-03-03T03:48:00;58.47;;;30.80;;
18580;SDS011;9420;50.876;7.012;2023-03-03T03:50:27;54.60;;;29.50;;
18580;SDS011;9420;50.876;7.012;2023-03-03T03:52:54;59.80;;;30.63;;
18580;SDS011;9420;50.876;7.012;2023-03-03T03:55:21;62.73;;;31.10;;
18580;SDS011;9420;50.876;7.012;2023-03-03T03:57:48;60.87;;;31.37;;
18580;SDS011;9420;50.876;7.012;2023-03-03T04:00:16;56.73;;;30.23;;
18580;SDS011;9420;50.876;7.012;2023-03-03T04:02:43;64.83;;;34.07;;
18580;SDS011;9420;50.876;7.012;2023-03-03T04:05:12;58.20;;;31.20;;
18580;SDS011;9420;50.876;7.012;2023-03-03T04:07:38;64.17;;;31.47;;
18580;SDS011;9420;50.876;7.012;2023-03-03T04:10:06;59.87;;;32.00;;
18580;SDS011;9420;50.876;7.012;2023-03-03T04:12:34;54.43;;;30.67;;
18580;SDS011;9420;50.876;7.012;2023-03-03T04:15:04;60.40;;;30.20;;
18580;SDS011;9420;50.876;7.012;2023-03-03T04:17:33;56.80;;;29.37;;
18580;SDS011;9420;50.876;7.012;2023-03-03T04:20:01;57.63;;;31.40;;
18580;SDS011;9420;50.876;7.012;2023-03-03T04:22:30;59.83;;;30.13;;
18580;SDS011;9420;50.876;7.012;2023-03-03T04:24:58;61.60;;;31.30;;
18580;SDS011;9420;50.876;7.012;2023-03-03T04:27:25;54.63;;;30.63;;
18580;SDS011;9420;50.876;7.012;2023-03-03T04:29:52;61.97;;;30.53;;
18580;SDS011;9420;50.876;7.012;2023-03-03T04:32:19;57.13;;;30.10;;
18580;SDS011;9420;50.876;7.012;2023-03-03T04:34:46;69.53;;;33.10;;
18580;SDS011;9420;50.876;7.012;2023-03-03T04:37:13;56.43;;;29.60;;
18580;SDS011;9420;50.876;7.012;2023-03-03T04:39:42;57.17;;;30.00;;
18580;SDS011;9420;50.876;7.012;2023-03-03T04:42:09;58.27;;;29.17;;
18580;SDS011;9420;50.876;7.012;2023-03-03T04:44:37;60.43;;;30.80;;
18580;SDS011;9420;50.876;7.012;2023-03-03T04:47:04;60.33;;;29.50;;
18580;SDS011;9420;50.876;7.012;2023-03-03T04:49:31;55.97;;;28.97;;
18580;SDS011;9420;50.876;7.012;2023-03-03T04:51:58;56.90;;;28.87;;
18580;SDS011;9420;50.876;7.012;2023-03-03T04:54:25;59.97;;;30.53;;
18580;SDS011;9420;50.876;7.012;2023-03-03T04:56:53;60.83;;;30.23;;
18580;SDS011;9420;50.876;7.012;2023-03-03T04:59:20;64.10;;;32.33;;
18580;SDS011;9420;50.876;7.012;2023-03-03T05:01:48;56.07;;;28.77;;
18580;SDS011;9420;50.876;7.012;2023-03-03T05:04:16;57.57;;;28.60;;
18580;SDS011;9420;50.876;7.012;2023-03-03T05:06:43;54.53;;;28.03;;
18580;SDS011;9420;50.876;7.012;2023-03-03T05:09:10;52.50;;;28.13;;
18580;SDS011;9420;50.876;7.012;2023-03-03T05:11:37;57.60;;;28.30;;
18580;SDS011;9420;50.876;7.012;2023-03-03T05:14:05;54.70;;;27.87;;
18580;SDS011;9420;50.876;7.012;2023-03-03T05:16:33;47.00;;;25.43;;
18580;SDS011;9420;50.876;7.012;2023-03-03T05:19:00;52.17;;;27.00;;
18580;SDS011;9420;50.876;7.012;2023-03-03T05:21:27;55.03;;;27.83;;
18580;SDS011;9420;50.876;7.012;2023-03-03T05:23:54;55.33;;;26.27;;
18580;SDS011;9420;50.876;7.012;2023-03-03T05:26:21;47.13;;;24.27;;
18580;SDS011;9420;50.876;7.012;2023-03-03T05:28:48;53.07;;;27.77;;
18580;SDS011;9420;50.876;7.012;2023-03-03T05:31:16;51.07;;;26.73;;
18580;SDS011;9420;50.876;7.012;2023-03-03T05:33:43;46.83;;;24.57;;
18580;SDS011;9420;50.876;7.012;2023-03-03T05:36:10;50.20;;;24.27;;
18580;SDS011;9420;50.876;7.012;2023-03-03T05:38:37;42.37;;;24.47;;
18580;SDS011;9420;50.876;7.012;2023-03-03T05:41:04;47.00;;;24.30;;
18580;SDS011;9420;50.876;7.012;2023-03-03T05:43:31;48.33;;;23.33;;
18580;SDS011;9420;50.876;7.012;2023-03-03T05:45:58;44.97;;;25.13;;
18580;SDS011;9420;50.876;7.012;2023-03-03T05:48:27;45.23;;;24.03;;
18580;SDS011;9420;50.876;7.012;2023-03-03T05:50:56;46.70;;;24.13;;
18580;SDS011;9420;50.876;7.012;2023-03-03T05:53:24;41.60;;;22.87;;
18580;SDS011;9420;50.876;7.012;2023-03-03T05:55:51;47.50;;;24.33;;
18580;SDS011;9420;50.876;7.012;2023-03-03T05:58:19;41.03;;;22.43;;
18580;SDS011;9420;50.876;7.012;2023-03-03T06:00:46;45.40;;;22.20;;
18580;SDS011;9420;50.876;7.012;2023-03-03T06:03:13;39.40;;;21.87;;
18580;SDS011;9420;50.876;7.012;2023-03-03T06:05:42;47.23;;;23.43;;
18580;SDS011;9420;50.876;7.012;2023-03-03T06:08:09;43.00;;;22.47;;
18580;SDS011;9420;50.876;7.012;2023-03-03T06:10:36;47.77;;;24.13;;
18580;SDS011;9420;50.876;7.012;2023-03-03T06:13:03;40.77;;;22.73;;
18580;SDS011;9420;50.876;7.012;2023-03-03T06:15:30;39.70;;;22.17;;
18580;SDS011;9420;50.876;7.012;2023-03-03T06:17:57;43.03;;;22.67;;
18580;SDS011;9420;50.876;7.012;2023-03-03T06:20:24;44.47;;;24.50;;
18580;SDS011;9420;50.876;7.012;2023-03-03T06:22:53;43.13;;;23.70;;
18580;SDS011;9420;50.876;7.012;2023-03-03T06:25:20;42.90;;;22.43;;
18580;SDS011;9420;50.876;7.012;2023-03-03T06:27:47;42.17;;;23.23;;
18580;SDS011;9420;50.876;7.012;2023-03-03T06:30:14;44.23;;;23.80;;
18580;SDS011;9420;50.876;7.012;2023-03-03T06:32:43;45.60;;;23.27;;
18580;SDS011;9420;50.876;7.012;2023-03-03T06:35:10;39.93;;;23.27;;
18580;SDS011;9420;50.876;7.012;2023-03-03T06:37:38;40.83;;;21.90;;
18580;SDS011;9420;50.876;7.012;2023-03-03T06:40:07;42.67;;;23.07;;
18580;SDS011;9420;50.876;7.012;2023-03-03T06:42:35;45.60;;;24.17;;
18580;SDS011;9420;50.876;7.012;2023-03-03T06:45:02;50.27;;;23.10;;
18580;SDS011;9420;50.876;7.012;2023-03-03T06:47:31;41.43;;;23.33;;
18580;SDS011;9420;50.876;7.012;2023-03-03T06:49:58;47.70;;;23.30;;
18580;SDS011;9420;50.876;7.012;2023-03-03T06:52:25;45.27;;;23.17;;
18580;SDS011;9420;50.876;7.012;2023-03-03T06:54:53;44.47;;;23.77;;
18580;SDS011;9420;50.876;7.012;2023-03-03T06:57:25;41.27;;;21.70;;
18580;SDS011;9420;50.876;7.012;2023-03-03T06:59:54;50.27;;;25.00;;
18580;SDS011;9420;50.876;7.012;2023-03-03T07:02:27;45.87;;;23.23;;
18580;SDS011;9420;50.876;7.012;2023-03-03T07:04:55;41.63;;;22.93;;
18580;SDS011;9420;50.876;7.012;2023-03-03T07:07:23;42.13;;;23.73;;
18580;SDS011;9420;50.876;7.012;2023-03-03T07:09:53;41.37;;;21.67;;
18580;SDS011;9420;50.876;7.012;2023-03-03T07:12:22;45.03;;;23.10;;
18580;SDS011;9420;50.876;7.012;2023-03-03T07:14:57;41.63;;;23.67;;
18580;SDS011;9420;50.876;7.012;2023-03-03T07:17:43;39.30;;;22.23;;
18580;SDS011;9420;50.876;7.012;2023-03-03T07:20:14;42.20;;;21.27;;
18580;SDS011;9420;50.876;7.012;2023-03-03T07:22:46;43.27;;;22.93;;
18580;SDS011;9420;50.876;7.012;2023-03-03T07:25:18;46.03;;;21.23;;
18580;SDS011;9420;50.876;7.012;2023-03-03T07:27:53;40.97;;;21.30;;
18580;SDS011;9420;50.876;7.012;2023-03-03T07:30:26;43.83;;;21.17;;
18580;SDS011;9420;50.876;7.012;2023-03-03T07:32:54;39.70;;;21.70;;
18580;SDS011;9420;50.876;7.012;2023-03-03T07:35:35;40.20;;;20.73;;
18580;SDS011;9420;50.876;7.012;2023-03-03T07:38:10;44.27;;;22.47;;
18580;SDS011;9420;50.876;7.012;2023-03-03T07:40:49;39.07;;;21.40;;
18580;SDS011;9420;50.876;7.012;2023-03-03T07:43:28;38.27;;;21.13;;
18580;SDS011;9420;50.876;7.012;2023-03-03T07:46:15;36.80;;;19.70;;
18580;SDS011;9420;50.876;7.012;2023-03-03T07:48:51;35.77;;;20.53;;
18580;SDS011;9420;50.876;7.012;2023-03-03T07:51:20;47.07;;;22.07;;
18580;SDS011;9420;50.876;7.012;2023-03-03T07:53:52;38.67;;;22.00;;
18580;SDS011;9420;50.876;7.012;2023-03-03T07:56:27;36.90;;;20.23;;
18580;SDS011;9420;50.876;7.012;2023-03-03T07:59:00;40.27;;;22.03;;
18580;SDS011;9420;50.876;7.012;2023-03-03T08:01:45;43.27;;;21.67;;
18580;SDS011;9420;50.876;7.012;2023-03-03T08:04:18;44.33;;;21.50;;
18580;SDS011;9420;50.876;7.012;2023-03-03T08:06:50;45.87;;;23.67;;
18580;SDS011;9420;50.876;7.012;2023-03-03T08:09:24;43.30;;;23.80;;
18580;SDS011;9420;50.876;7.012;2023-03-03T08:15:18;40.90;;;21.43;;
18580;SDS011;9420;50.876;7.012;2023-03-03T08:17:49;41.73;;;20.90;;
18580;SDS011;9420;50.876;7.012;2023-03-03T08:23:18;34.37;;;18.60;;
18580;SDS011;9420;50.876;7.012;2023-03-03T08:25:47;38.17;;;19.27;;
18580;SDS011;9420;50.876;7.012;2023-03-03T08:28:15;40.93;;;20.03;;
18580;SDS011;9420;50.876;7.012;2023-03-03T08:30:44;32.13;;;18.53;;
18580;SDS011;9420;50.876;7.012;2023-03-03T08:33:12;36.43;;;19.77;;
18580;SDS011;9420;50.876;7.012;2023-03-03T08:35:41;39.57;;;18.63;;
18580;SDS011;9420;50.876;7.012;2023-03-03T08:38:08;37.97;;;20.03;;
18580;SDS011;9420;50.876;7.012;2023-03-03T08:40:42;37.10;;;19.90;;
18580;SDS011;9420;50.876;7.012;2023-03-03T08:43:10;33.77;;;18.53;;
18580;SDS011;9420;50.876;7.012;2023-03-03T08:45:41;41.83;;;21.00;;
18580;SDS011;9420;50.876;7.012;2023-03-03T08:48:11;42.33;;;21.50;;
18580;SDS011;9420;50.876;7.012;2023-03-03T08:50:39;39.07;;;19.43;;
18580;SDS011;9420;50.876;7.012;2023-03-03T08:53:08;38.47;;;18.43;;
18580;SDS011;9420;50.876;7.012;2023-03-03T08:55:36;40.87;;;18.40;;
18580;SDS011;9420;50.876;7.012;2023-03-03T08:58:04;38.53;;;19.93;;
18580;SDS011;9420;50.876;7.012;2023-03-03T09:00:31;46.83;;;20.03;;
18580;SDS011;9420;50.876;7.012;2023-03-03T09:03:00;35.43;;;19.63;;
18580;SDS011;9420;50.876;7.012;2023-03-03T09:05:27;36.20;;;20.13;;
18580;SDS011;9420;50.876;7.012;2023-03-03T09:07:55;40.00;;;20.27;;
18580;SDS011;9420;50.876;7.012;2023-03-03T09:10:24;30.80;;;17.40;;
18580;SDS011;9420;50.876;7.012;2023-03-03T09:12:55;36.57;;;20.20;;
18580;SDS011;9420;50.876;7.012;2023-03-03T09:15:26;32.77;;;19.17;;
18580;SDS011;9420;50.876;7.012;2023-03-03T09:17:56;33.60;;;19.70;;
18580;SDS011;9420;50.876;7.012;2023-03-03T09:20:36;38.30;;;21.00;;
18580;SDS011;9420;50.876;7.012;2023-03-03T09:26:16;42.37;;;22.00;;
18580;SDS011;9420;50.876;7.012;2023-03-03T09:28:52;41.33;;;23.47;;
18580;SDS011;9420;50.876;7.012;2023-03-03T09:31:23;41.37;;;24.43;;
18580;SDS011;9420;50.876;7.012;2023-03-03T09:33:56;39.43;;;21.27;;
18580;SDS011;9420;50.876;7.012;2023-03-03T09:36:24;39.77;;;22.83;;
18580;SDS011;9420;50.876;7.012;2023-03-03T09:38:55;40.13;;;21.47;;
18580;SDS011;9420;50.876;7.012;2023-03-03T09:44:50;38.80;;;22.43;;
18580;SDS011;9420;50.876;7.012;2023-03-03T09:48:06;38.17;;;21.40;;
18580;SDS011;9420;50.876;7.012;2023-03-03T09:51:03;43.97;;;24.37;;
18580;SDS011;9420;50.876;7.012;2023-03-03T09:54:03;44.00;;;24.87;;
18580;SDS011;9420;50.876;7.012;2023-03-03T09:56:51;43.97;;;24.07;;
18580;SDS011;9420;50.876;7.012;2023-03-03T09:59:33;40.30;;;23.17;;
18580;SDS011;9420;50.876;7.012;2023-03-03T10:02:30;44.97;;;25.27;;
18580;SDS011;9420;50.876;7.012;2023-03-03T10:05:20;45.33;;;23.73;;
18580;SDS011;9420;50.876;7.012;2023-03-03T10:08:06;41.43;;;20.93;;
18580;SDS011;9420;50.876;7.012;2023-03-03T10:11:00;38.07;;;21.43;;
18580;SDS011;9420;50.876;7.012;2023-03-03T10:13:40;36.97;;;20.10;;
18580;SDS011;9420;50.876;7.012;2023-03-03T10:19:20;35.17;;;18.57;;
18580;SDS011;9420;50.876;7.012;2023-03-03T10:22:06;35.80;;;21.00;;
18580;SDS011;9420;50.876;7.012;2023-03-03T10:24:58;36.97;;;21.67;;
18580;SDS011;9420;50.876;7.012;2023-03-03T10:27:49;40.60;;;21.83;;
18580;SDS011;9420;50.876;7.012;2023-03-03T10:30:34;35.57;;;20.77;;
18580;SDS011;9420;50.876;7.012;2023-03-03T10:33:15;36.77;;;20.20;;
18580;SDS011;9420;50.876;7.012;2023-03-03T10:36:00;43.50;;;20.50;;
18580;SDS011;9420;50.876;7.012;2023-03-03T10:38:49;38.93;;;20.50;;
18580;SDS011;9420;50.876;7.012;2023-03-03T10:41:57;32.90;;;18.10;;
18580;SDS011;9420;50.876;7.012;2023-03-03T10:45:04;31.37;;;16.77;;
18580;SDS011;9420;50.876;7.012;2023-03-03T10:48:07;26.33;;;15.00;;
18580;SDS011;9420;50.876;7.012;2023-03-03T10:51:18;35.50;;;18.17;;
18580;SDS011;9420;50.876;7.012;2023-03-03T10:53:59;32.97;;;17.63;;
18580;SDS011;9420;50.876;7.012;2023-03-03T10:56:46;38.17;;;21.47;;
18580;SDS011;9420;50.876;7.012;2023-03-03T10:59:27;33.93;;;20.07;;
18580;SDS011;9420;50.876;7.012;2023-03-03T11:02:17;34.00;;;18.93;;
18580;SDS011;9420;50.876;7.012;2023-03-03T11:04:55;36.30;;;20.43;;
18580;SDS011;9420;50.876;7.012;2023-03-03T11:07:55;31.97;;;16.83;;
18580;SDS011;9420;50.876;7.012;2023-03-03T11:10:29;34.63;;;19.07;;
18580;SDS011;9420;50.876;7.012;2023-03-03T11:13:18;29.43;;;16.63;;
18580;SDS011;9420;50.876;7.012;2023-03-03T11:16:27;31.30;;;16.93;;
18580;SDS011;9420;50.876;7.012;2023-03-03T11:19:15;29.40;;;16.70;;
18580;SDS011;9420;50.876;7.012;2023-03-03T11:22:18;33.47;;;17.17;;
18580;SDS011;9420;50.876;7.012;2023-03-03T11:25:07;33.53;;;16.97;;
18580;SDS011;9420;50.876;7.012;2023-03-03T11:27:57;36.83;;;20.80;;
18580;SDS011;9420;50.876;7.012;2023-03-03T11:31:06;38.23;;;21.30;;
18580;SDS011;9420;50.876;7.012;2023-03-03T11:33:46;38.80;;;20.63;;
18580;SDS011;9420;50.876;7.012;2023-03-03T11:36:26;37.07;;;21.50;;
18580;SDS011;9420;50.876;7.012;2023-03-03T11:39:01;35.30;;;19.30;;
18580;SDS011;9420;50.876;7.012;2023-03-03T11:41:33;40.83;;;20.27;;
18580;SDS011;9420;50.876;7.012;2023-03-03T11:44:09;34.87;;;19.80;;
18580;SDS011;9420;50.876;7.012;2023-03-03T11:46:47;37.23;;;18.50;;
18580;SDS011;9420;50.876;7.012;2023-03-03T11:49:23;41.53;;;21.80;;
18580;SDS011;9420;50.876;7.012;2023-03-03T11:52:04;37.20;;;20.17;;
18580;SDS011;9420;50.876;7.012;2023-03-03T11:54:49;42.30;;;21.07;;
18580;SDS011;9420;50.876;7.012;2023-03-03T11:57:22;37.70;;;19.90;;
18580;SDS011;9420;50.876;7.012;2023-03-03T11:59:59;36.03;;;19.70;;
18580;SDS011;9420;50.876;7.012;2023-03-03T12:02:46;39.30;;;21.53;;
18580;SDS011;9420;50.876;7.012;2023-03-03T12:05:55;39.97;;;22.83;;
18580;SDS011;9420;50.876;7.012;2023-03-03T12:08:42;41.20;;;23.03;;
18580;SDS011;9420;50.876;7.012;2023-03-03T12:11:30;40.00;;;21.80;;
18580;SDS011;9420;50.876;7.012;2023-03-03T12:14:12;43.30;;;24.67;;
18580;SDS011;9420;50.876;7.012;2023-03-03T12:17:02;46.17;;;24.63;;
18580;SDS011;9420;50.876;7.012;2023-03-03T12:19:40;49.03;;;23.90;;
18580;SDS011;9420;50.876;7.012;2023-03-03T12:22:26;46.40;;;24.10;;
18580;SDS011;9420;50.876;7.012;2023-03-03T12:25:06;47.93;;;24.40;;
18580;SDS011;9420;50.876;7.012;2023-03-03T12:27:53;37.47;;;23.83;;
18580;SDS011;9420;50.876;7.012;2023-03-03T12:33:49;38.60;;;22.73;;
18580;SDS011;9420;50.876;7.012;2023-03-03T12:36:26;40.93;;;23.40;;
18580;SDS011;9420;50.876;7.012;2023-03-03T12:39:19;43.73;;;24.60;;
18580;SDS011;9420;50.876;7.012;2023-03-03T12:42:05;50.07;;;26.87;;
18580;SDS011;9420;50.876;7.012;2023-03-03T12:44:44;44.57;;;26.10;;
18580;SDS011;9420;50.876;7.012;2023-03-03T12:47:27;47.33;;;28.17;;
18580;SDS011;9420;50.876;7.012;2023-03-03T12:50:10;44.60;;;26.37;;
18580;SDS011;9420;50.876;7.012;2023-03-03T12:53:02;40.30;;;24.17;;
18580;SDS011;9420;50.876;7.012;2023-03-03T12:55:50;43.97;;;25.10;;
18580;SDS011;9420;50.876;7.012;2023-03-03T12:58:29;45.90;;;25.90;;
18580;SDS011;9420;50.876;7.012;2023-03-03T13:01:17;43.83;;;25.10;;
18580;SDS011;9420;50.876;7.012;2023-03-03T13:04:18;46.20;;;26.23;;
18580;SDS011;9420;50.876;7.012;2023-03-03T13:07:03;45.13;;;28.17;;
18580;SDS011;9420;50.876;7.012;2023-03-03T13:09:42;46.23;;;26.07;;
18580;SDS011;9420;50.876;7.012;2023-03-03T13:12:33;48.03;;;27.93;;
18580;SDS011;9420;50.876;7.012;2023-03-03T13:15:11;46.53;;;26.03;;
18580;SDS011;9420;50.876;7.012;2023-03-03T13:17:46;42.67;;;25.90;;
18580;SDS011;9420;50.876;7.012;2023-03-03T13:20:29;50.70;;;26.13;;
18580;SDS011;9420;50.876;7.012;2023-03-03T13:23:09;49.10;;;26.43;;
18580;SDS011;9420;50.876;7.012;2023-03-03T13:25:52;50.50;;;27.10;;
18580;SDS011;9420;50.876;7.012;2023-03-03T13:28:32;42.40;;;23.37;;
18580;SDS011;9420;50.876;7.012;2023-03-03T13:31:07;42.13;;;24.67;;
18580;SDS011;9420;50.876;7.012;2023-03-03T13:33:46;39.43;;;25.23;;
18580;SDS011;9420;50.876;7.012;2023-03-03T13:36:20;38.47;;;23.30;;
18580;SDS011;9420;50.876;7.012;2023-03-03T13:38:56;38.93;;;24.33;;
18580;SDS011;9420;50.876;7.012;2023-03-03T13:41:35;40.50;;;23.10;;
18580;SDS011;9420;50.876;7.012;2023-03-03T13:44:13;36.33;;;22.37;;
18580;SDS011;9420;50.876;7.012;2023-03-03T13:46:54;37.20;;;23.23;;
18580;SDS011;9420;50.876;7.012;2023-03-03T13:49:44;36.97;;;22.57;;
18580;SDS011;9420;50.876;7.012;2023-03-03T13:52:26;35.37;;;19.77;;
18580;SDS011;9420;50.876;7.012;2023-03-03T13:55:00;35.80;;;20.87;;
18580;SDS011;9420;50.876;7.012;2023-03-03T13:57:44;38.13;;;21.43;;
18580;SDS011;9420;50.876;7.012;2023-03-03T14:00:30;42.30;;;23.37;;
18580;SDS011;9420;50.876;7.012;2023-03-03T14:03:20;39.83;;;20.93;;
18580;SDS011;9420;50.876;7.012;2023-03-03T14:06:20;40.97;;;21.23;;
18580;SDS011;9420;50.876;7.012;2023-03-03T14:08:57;43.23;;;23.80;;
18580;SDS011;9420;50.876;7.012;2023-03-03T14:11:38;35.67;;;21.53;;
18580;SDS011;9420;50.876;7.012;2023-03-03T14:14:18;37.93;;;21.23;;
18580;SDS011;9420;50.876;7.012;2023-03-03T14:17:14;38.77;;;23.23;;
18580;SDS011;9420;50.876;7.012;2023-03-03T14:19:58;32.43;;;19.90;;
18580;SDS011;9420;50.876;7.012;2023-03-03T14:22:40;37.67;;;21.27;;
18580;SDS011;9420;50.876;7.012;2023-03-03T14:25:17;43.67;;;23.80;;
18580;SDS011;9420;50.876;7.012;2023-03-03T14:27:58;44.17;;;25.40;;
18580;SDS011;9420;50.876;7.012;2023-03-03T14:30:38;47.07;;;25.43;;
18580;SDS011;9420;50.876;7.012;2023-03-03T14:33:17;50.07;;;27.37;;
18580;SDS011;9420;50.876;7.012;2023-03-03T14:35:49;47.00;;;25.83;;
18580;SDS011;9420;50.876;7.012;2023-03-03T14:38:37;56.60;;;27.60;;
18580;SDS011;9420;50.876;7.012;2023-03-03T14:41:13;54.37;;;26.33;;
18580;SDS011;9420;50.876;7.012;2023-03-03T14:43:45;50.10;;;25.27;;
18580;SDS011;9420;50.876;7.012;2023-03-03T14:46:34;44.17;;;24.47;;
18580;SDS011;9420;50.876;7.012;2023-03-03T14:49:13;52.43;;;26.17;;
18580;SDS011;9420;50.876;7.012;2023-03-03T14:52:00;50.73;;;26.20;;
18580;SDS011;9420;50.876;7.012;2023-03-03T14:54:31;52.23;;;27.63;;
18580;SDS011;9420;50.876;7.012;2023-03-03T14:57:08;49.37;;;25.13;;
18580;SDS011;9420;50.876;7.012;2023-03-03T14:59:53;50.43;;;26.53;;
18580;SDS011;9420;50.876;7.012;2023-03-03T15:02:27;55.33;;;25.97;;
18580;SDS011;9420;50.876;7.012;2023-03-03T15:07:58;51.47;;;25.77;;
18580;SDS011;9420;50.876;7.012;2023-03-03T15:10:37;58.50;;;27.90;;
18580;SDS011;9420;50.876;7.012;2023-03-03T15:13:11;58.13;;;27.60;;
18580;SDS011;9420;50.876;7.012;2023-03-03T15:16:00;58.97;;;30.00;;
18580;SDS011;9420;50.876;7.012;2023-03-03T15:18:48;59.20;;;28.07;;
18580;SDS011;9420;50.876;7.012;2023-03-03T15:21:47;62.27;;;28.57;;
18580;SDS011;9420;50.876;7.012;2023-03-03T15:24:28;61.50;;;29.17;;
18580;SDS011;9420;50.876;7.012;2023-03-03T15:27:07;62.93;;;28.03;;
18580;SDS011;9420;50.876;7.012;2023-03-03T15:29:47;59.97;;;27.80;;
18580;SDS011;9420;50.876;7.012;2023-03-03T15:32:30;58.80;;;27.90;;
18580;SDS011;9420;50.876;7.012;2023-03-03T15:35:12;54.00;;;28.37;;
18580;SDS011;9420;50.876;7.012;2023-03-03T15:38:00;61.80;;;27.17;;
18580;SDS011;9420;50.876;7.012;2023-03-03T15:40:42;58.83;;;29.13;;
18580;SDS011;9420;50.876;7.012;2023-03-03T15:43:19;54.97;;;26.70;;
18580;SDS011;9420;50.876;7.012;2023-03-03T15:45:56;55.33;;;28.17;;
18580;SDS011;9420;50.876;7.012;2023-03-03T15:48:39;57.07;;;25.23;;